createdAt,value
2022-10-07T00:00:18.301Z,370.00
2022-10-07T00:01:18.320Z,373.00
2022-10-07T00:02:18.275Z,356.00
2022-10-07T00:03:18.230Z,362.00
2022-10-07T00:04:18.203Z,357.00
2022-10-07T00:05:18.178Z,365.00
2022-10-07T00:06:18.164Z,365.00
2022-10-07T00:07:18.195Z,379.00
2022-10-07T00:08:18.161Z,379.00
2022-10-07T00:09:18.165Z,395.00
2022-10-07T00:10:18.110Z,402.00
2022-10-07T00:11:18.133Z,398.00
2022-10-07T00:12:18.105Z,389.00
2022-10-07T00:13:18.072Z,380.00
2022-10-07T00:14:18.095Z,377.00
2022-10-07T00:15:18.049Z,387.00
2022-10-07T00:16:18.081Z,400.00
2022-10-07T00:17:18.040Z,381.00
2022-10-07T00:18:18.030Z,361.00
2022-10-07T00:19:18.026Z,372.00
2022-10-07T00:20:18.000Z,357.00
2022-10-07T00:21:17.998Z,384.00
2022-10-07T00:22:17.985Z,381.00
2022-10-07T00:23:17.963Z,380.00
2022-10-07T00:24:17.933Z,378.00
2022-10-07T00:25:17.937Z,374.00
2022-10-07T00:26:17.912Z,375.00
2022-10-07T00:27:17.902Z,377.00
2022-10-07T00:28:17.910Z,370.00
2022-10-07T00:29:17.903Z,400.00
2022-10-07T00:30:17.858Z,395.00
2022-10-07T00:31:17.913Z,401.00
2022-10-07T00:32:17.849Z,411.00
2022-10-07T00:33:17.834Z,376.00
2022-10-07T00:34:17.814Z,363.00
2022-10-07T00:35:17.811Z,368.00
2022-10-07T00:36:18.432Z,366.00
2022-10-07T00:37:17.741Z,365.00
2022-10-07T00:38:17.756Z,367.00
2022-10-07T00:39:17.737Z,370.00
2022-10-07T00:40:17.714Z,369.00
2022-10-07T00:41:17.708Z,371.00
2022-10-07T00:42:17.722Z,366.00
2022-10-07T00:43:17.683Z,370.00
2022-10-07T00:44:17.666Z,377.00
2022-10-07T00:45:17.681Z,376.00
2022-10-07T00:46:17.660Z,373.00
2022-10-07T00:47:17.620Z,359.00
2022-10-07T00:48:17.661Z,376.00
2022-10-07T00:49:17.610Z,385.00
2022-10-07T00:50:17.607Z,389.00
2022-10-07T00:51:17.584Z,376.00
2022-10-07T00:52:17.555Z,393.00
2022-10-07T00:53:17.538Z,384.00
2022-10-07T00:54:17.545Z,383.00
2022-10-07T00:55:17.539Z,402.00
2022-10-07T00:56:17.518Z,396.00
2022-10-07T00:57:17.517Z,387.00
2022-10-07T00:58:17.473Z,378.00
2022-10-07T00:59:17.459Z,370.00
2022-10-07T01:00:17.456Z,394.00
2022-10-07T01:01:17.533Z,418.00
2022-10-07T01:02:17.452Z,420.00
2022-10-07T01:03:17.412Z,422.00
2022-10-07T01:04:17.406Z,433.00
2022-10-07T01:05:17.403Z,438.00
2022-10-07T01:06:17.393Z,431.00
2022-10-07T01:07:17.373Z,409.00
2022-10-07T01:08:17.364Z,406.00
2022-10-07T01:09:17.347Z,417.00
2022-10-07T01:10:17.346Z,434.00
2022-10-07T01:11:17.331Z,424.00
2022-10-07T01:12:17.312Z,424.00
2022-10-07T01:13:17.309Z,407.00
2022-10-07T01:14:17.298Z,399.00
2022-10-07T01:15:17.256Z,395.00
2022-10-07T01:16:17.297Z,372.00
2022-10-07T01:17:17.228Z,375.00
2022-10-07T01:18:17.242Z,393.00
2022-10-07T01:19:17.198Z,396.00
2022-10-07T01:20:17.192Z,382.00
2022-10-07T01:21:17.173Z,367.00
2022-10-07T01:22:17.190Z,380.00
2022-10-07T01:23:17.169Z,382.00
2022-10-07T01:24:17.174Z,382.00
2022-10-07T01:25:17.127Z,376.00
2022-10-07T01:26:17.121Z,376.00
2022-10-07T01:27:17.102Z,383.00
2022-10-07T01:28:17.193Z,389.00
2022-10-07T01:29:17.092Z,389.00
2022-10-07T01:30:17.074Z,396.00
2022-10-07T01:31:17.133Z,422.00
2022-10-07T01:32:17.038Z,427.00
2022-10-07T01:33:17.036Z,407.00
2022-10-07T01:34:17.020Z,409.00
2022-10-07T01:35:17.037Z,412.00
2022-10-07T01:36:17.006Z,407.00
2022-10-07T01:37:16.963Z,413.00
2022-10-07T01:38:16.978Z,419.00
2022-10-07T01:39:16.958Z,439.00
2022-10-07T01:40:16.933Z,453.00
2022-10-07T01:41:16.944Z,447.00
2022-10-07T01:42:16.922Z,413.00
2022-10-07T01:43:16.931Z,428.00
2022-10-07T01:44:16.899Z,437.00
2022-10-07T01:45:16.881Z,444.00
2022-10-07T01:46:16.888Z,456.00
2022-10-07T01:47:16.862Z,452.00
2022-10-07T01:48:16.849Z,448.00
2022-10-07T01:49:16.810Z,463.00
2022-10-07T01:50:16.824Z,457.00
2022-10-07T01:51:16.808Z,452.00
2022-10-07T01:52:16.803Z,461.00
2022-10-07T01:53:16.758Z,455.00
2022-10-07T01:54:16.768Z,465.00
2022-10-07T01:55:16.738Z,476.00
2022-10-07T01:56:16.751Z,457.00
2022-10-07T01:57:16.732Z,466.00
2022-10-07T01:58:16.747Z,450.00
2022-10-07T01:59:16.699Z,447.00
2022-10-07T02:00:16.726Z,432.00
2022-10-07T02:01:16.718Z,441.00
2022-10-07T02:02:16.680Z,446.00
2022-10-07T02:03:16.752Z,444.00
2022-10-07T02:04:16.628Z,436.00
2022-10-07T02:05:16.644Z,427.00
2022-10-07T02:06:16.597Z,431.00
2022-10-07T02:07:16.584Z,423.00
2022-10-07T02:08:16.590Z,430.00
2022-10-07T02:09:16.580Z,422.00
2022-10-07T02:10:16.583Z,406.00
2022-10-07T02:11:16.526Z,389.00
2022-10-07T02:12:16.544Z,398.00
2022-10-07T02:13:16.518Z,391.00
2022-10-07T02:14:16.527Z,429.00
2022-10-07T02:15:16.496Z,402.00
2022-10-07T02:16:16.565Z,377.00
2022-10-07T02:17:16.448Z,383.00
2022-10-07T02:18:16.443Z,381.00
2022-10-07T02:19:16.448Z,398.00
2022-10-07T02:20:16.451Z,407.00
2022-10-07T02:21:16.410Z,421.00
2022-10-07T02:22:16.402Z,427.00
2022-10-07T02:23:16.393Z,430.00
2022-10-07T02:24:16.402Z,434.00
2022-10-07T02:25:16.346Z,443.00
2022-10-07T02:26:16.354Z,452.00
2022-10-07T02:27:16.335Z,410.00
2022-10-07T02:28:16.360Z,415.00
2022-10-07T02:29:16.296Z,418.00
2022-10-07T02:30:16.294Z,422.00
2022-10-07T02:31:16.367Z,416.00
2022-10-07T02:32:16.295Z,378.00
2022-10-07T02:33:16.306Z,375.00
2022-10-07T02:34:19.730Z,364.00
2022-10-07T02:35:16.243Z,363.00
2022-10-07T02:36:16.230Z,375.00
2022-10-07T02:37:16.192Z,369.00
2022-10-07T02:38:16.200Z,371.00
2022-10-07T02:39:16.205Z,371.00
2022-10-07T02:40:16.156Z,372.00
2022-10-07T02:41:16.176Z,401.00
2022-10-07T02:42:16.163Z,381.00
2022-10-07T02:43:16.126Z,380.00
2022-10-07T02:44:16.098Z,397.00
2022-10-07T02:45:16.086Z,402.00
2022-10-07T02:46:16.169Z,414.00
2022-10-07T02:47:16.083Z,414.00
2022-10-07T02:48:16.069Z,434.00
2022-10-07T02:49:16.031Z,432.00
2022-10-07T02:50:16.020Z,440.00
2022-10-07T02:51:20.618Z,425.00
2022-10-07T02:52:16.016Z,428.00
2022-10-07T02:53:15.977Z,420.00
2022-10-07T02:54:15.983Z,442.00
2022-10-07T02:55:15.984Z,453.00
2022-10-07T02:56:15.952Z,456.00
2022-10-07T02:57:15.979Z,457.00
2022-10-07T02:58:15.938Z,460.00
2022-10-07T02:59:15.927Z,460.00
2022-10-07T03:00:15.916Z,457.00
2022-10-07T03:01:15.937Z,464.00
2022-10-07T03:02:15.902Z,459.00
2022-10-07T03:03:15.917Z,450.00
2022-10-07T03:04:15.839Z,453.00
2022-10-07T03:05:15.853Z,442.00
2022-10-07T03:06:15.821Z,457.00
2022-10-07T03:07:15.808Z,453.00
2022-10-07T03:08:15.819Z,446.00
2022-10-07T03:09:15.783Z,444.00
2022-10-07T03:10:15.762Z,436.00
2022-10-07T03:11:15.742Z,448.00
2022-10-07T03:12:15.752Z,431.00
2022-10-07T03:13:15.762Z,447.00
2022-10-07T03:14:15.706Z,439.00
2022-10-07T03:15:15.702Z,434.00
2022-10-07T03:16:15.813Z,426.00
2022-10-07T03:17:15.684Z,420.00
2022-10-07T03:18:15.706Z,422.00
2022-10-07T03:19:15.671Z,420.00
2022-10-07T03:20:15.649Z,433.00
2022-10-07T03:21:15.643Z,449.00
2022-10-07T03:22:15.624Z,453.00
2022-10-07T03:23:15.596Z,445.00
2022-10-07T03:24:15.585Z,461.00
2022-10-07T03:25:15.564Z,463.00
2022-10-07T03:26:15.581Z,459.00
2022-10-07T03:27:15.562Z,466.00
2022-10-07T03:28:15.573Z,485.00
2022-10-07T03:29:15.539Z,458.00
2022-10-07T03:30:15.546Z,404.00
2022-10-07T03:31:15.657Z,412.00
2022-10-07T03:32:15.531Z,398.00
2022-10-07T03:33:15.461Z,388.00
2022-10-07T03:34:15.451Z,391.00
2022-10-07T03:35:15.428Z,398.00
2022-10-07T03:36:15.486Z,411.00
2022-10-07T03:37:15.399Z,422.00
2022-10-07T03:38:15.398Z,419.00
2022-10-07T03:39:15.371Z,415.00
2022-10-07T03:40:15.380Z,417.00
2022-10-07T03:41:15.379Z,409.00
2022-10-07T03:42:15.346Z,393.00
2022-10-07T03:43:15.341Z,391.00
2022-10-07T03:44:15.318Z,385.00
2022-10-07T03:45:15.327Z,395.00
2022-10-07T03:46:15.332Z,400.00
2022-10-07T03:47:15.283Z,398.00
2022-10-07T03:48:15.282Z,397.00
2022-10-07T03:49:15.263Z,407.00
2022-10-07T03:50:15.244Z,422.00
2022-10-07T03:51:15.225Z,443.00
2022-10-07T03:52:15.224Z,459.00
2022-10-07T03:53:15.206Z,467.00
2022-10-07T03:54:15.195Z,461.00
2022-10-07T03:55:15.186Z,465.00
2022-10-07T03:56:15.320Z,465.00
2022-10-07T03:57:15.161Z,477.00
2022-10-07T03:58:15.138Z,465.00
2022-10-07T03:59:15.106Z,456.00
2022-10-07T04:00:15.101Z,483.00
2022-10-07T04:01:15.218Z,444.00
2022-10-07T04:02:15.071Z,458.00
2022-10-07T04:03:15.139Z,459.00
2022-10-07T04:04:15.069Z,453.00
2022-10-07T04:05:15.043Z,449.00
2022-10-07T04:06:15.021Z,463.00
2022-10-07T04:07:15.035Z,455.00
2022-10-07T04:08:15.033Z,460.00
2022-10-07T04:09:14.992Z,450.00
2022-10-07T04:10:14.982Z,439.00
2022-10-07T04:11:14.972Z,446.00
2022-10-07T04:12:14.943Z,433.00
2022-10-07T04:13:14.937Z,428.00
2022-10-07T04:14:14.934Z,433.00
2022-10-07T04:15:14.910Z,439.00
2022-10-07T04:16:14.951Z,452.00
2022-10-07T04:17:14.884Z,426.00
2022-10-07T04:18:14.882Z,422.00
2022-10-07T04:19:14.884Z,414.00
2022-10-07T04:20:14.861Z,405.00
2022-10-07T04:21:14.812Z,397.00
2022-10-07T04:22:14.812Z,383.00
2022-10-07T04:23:14.804Z,387.00
2022-10-07T04:24:14.781Z,376.00
2022-10-07T04:25:14.790Z,392.00
2022-10-07T04:26:14.770Z,382.00
2022-10-07T04:27:33.799Z,398.00
2022-10-07T04:28:14.767Z,386.00
2022-10-07T04:29:14.723Z,370.00
2022-10-07T04:30:14.708Z,409.00
2022-10-07T04:31:14.796Z,400.00
2022-10-07T04:32:14.688Z,400.00
2022-10-07T04:33:14.669Z,415.00
2022-10-07T04:34:14.673Z,435.00
2022-10-07T04:35:14.647Z,450.00
2022-10-07T04:36:14.638Z,464.00
2022-10-07T04:37:14.613Z,471.00
2022-10-07T04:38:14.600Z,472.00
2022-10-07T04:39:14.576Z,485.00
2022-10-07T04:40:14.570Z,494.00
2022-10-07T04:41:14.562Z,491.00
2022-10-07T04:42:14.553Z,462.00
2022-10-07T04:43:14.555Z,453.00
2022-10-07T04:44:14.530Z,465.00
2022-10-07T04:45:14.521Z,461.00
2022-10-07T04:46:14.627Z,481.00
2022-10-07T04:47:14.590Z,482.00
2022-10-07T04:48:14.486Z,483.00
2022-10-07T04:49:14.466Z,486.00
2022-10-07T04:50:14.433Z,481.00
2022-10-07T04:51:14.421Z,471.00
2022-10-07T04:52:14.419Z,451.00
2022-10-07T04:53:14.398Z,437.00
2022-10-07T04:54:14.378Z,456.00
2022-10-07T04:55:14.379Z,426.00
2022-10-07T04:56:14.372Z,462.00
2022-10-07T04:57:14.360Z,460.00
2022-10-07T04:58:14.335Z,418.00
2022-10-07T04:59:14.318Z,436.00
2022-10-07T05:00:14.310Z,435.00
2022-10-07T05:01:14.363Z,448.00
2022-10-07T05:02:14.405Z,464.00
2022-10-07T05:03:14.266Z,456.00
2022-10-07T05:04:14.276Z,462.00
2022-10-07T05:05:14.266Z,447.00
2022-10-07T05:06:14.217Z,462.00
2022-10-07T05:07:14.225Z,448.00
2022-10-07T05:08:14.193Z,454.00
2022-10-07T05:09:14.183Z,424.00
2022-10-07T05:10:14.194Z,423.00
2022-10-07T05:11:14.158Z,438.00
2022-10-07T05:12:14.154Z,441.00
2022-10-07T05:13:14.125Z,449.00
2022-10-07T05:14:14.121Z,432.00
2022-10-07T05:15:14.123Z,445.00
2022-10-07T05:16:14.115Z,444.00
2022-10-07T05:17:14.099Z,455.00
2022-10-07T05:18:14.055Z,454.00
2022-10-07T05:19:14.070Z,455.00
2022-10-07T05:20:14.031Z,449.00
2022-10-07T05:21:14.023Z,459.00
2022-10-07T05:22:14.004Z,468.00
2022-10-07T05:23:14.021Z,454.00
2022-10-07T05:24:13.979Z,458.00
2022-10-07T05:25:13.983Z,444.00
2022-10-07T05:26:14.115Z,444.00
2022-10-07T05:27:13.959Z,435.00
2022-10-07T05:28:14.004Z,421.00
2022-10-07T05:29:13.959Z,405.00
2022-10-07T05:30:13.917Z,409.00
2022-10-07T05:31:13.949Z,397.00
2022-10-07T05:32:13.872Z,428.00
2022-10-07T05:33:13.878Z,407.00
2022-10-07T05:34:13.838Z,410.00
2022-10-07T05:35:13.865Z,386.00
2022-10-07T05:36:13.835Z,375.00
2022-10-07T05:37:13.807Z,370.00
2022-10-07T05:38:13.803Z,366.00
2022-10-07T05:39:13.791Z,389.00
2022-10-07T05:40:13.785Z,374.00
2022-10-07T05:41:13.782Z,365.00
2022-10-07T05:42:13.764Z,365.00
2022-10-07T05:43:13.745Z,360.00
2022-10-07T05:44:13.724Z,367.00
2022-10-07T05:45:13.733Z,384.00
2022-10-07T05:46:13.767Z,381.00
2022-10-07T05:47:13.699Z,377.00
2022-10-07T05:48:13.658Z,386.00
2022-10-07T05:49:13.652Z,393.00
2022-10-07T05:50:13.630Z,382.00
2022-10-07T05:51:13.650Z,385.00
2022-10-07T05:52:13.606Z,372.00
2022-10-07T05:53:13.621Z,363.00
2022-10-07T05:54:13.583Z,343.00
2022-10-07T05:55:13.598Z,341.00
2022-10-07T05:56:13.580Z,340.00
2022-10-07T05:57:13.609Z,346.00
2022-10-07T05:58:13.529Z,344.00
2022-10-07T05:59:13.540Z,348.00
2022-10-07T06:00:13.520Z,351.00
2022-10-07T06:01:14.289Z,355.00
2022-10-07T06:02:13.643Z,344.00
2022-10-07T06:03:13.522Z,340.00
2022-10-07T06:04:13.453Z,343.00
2022-10-07T06:05:13.443Z,347.00
2022-10-07T06:06:13.425Z,377.00
2022-10-07T06:07:16.962Z,387.00
2022-10-07T06:08:13.401Z,392.00
2022-10-07T06:09:13.409Z,392.00
2022-10-07T06:10:13.377Z,397.00
2022-10-07T06:11:13.382Z,394.00
2022-10-07T06:12:13.365Z,394.00
2022-10-07T06:13:13.362Z,391.00
2022-10-07T06:14:13.340Z,393.00
2022-10-07T06:15:13.314Z,397.00
2022-10-07T06:16:13.382Z,399.00
2022-10-07T06:17:13.286Z,398.00
2022-10-07T06:18:13.299Z,394.00
2022-10-07T06:19:13.261Z,392.00
2022-10-07T06:20:13.240Z,392.00
2022-10-07T06:21:13.257Z,406.00
2022-10-07T06:22:13.244Z,397.00
2022-10-07T06:23:13.211Z,388.00
2022-10-07T06:24:13.226Z,378.00
2022-10-07T06:25:13.178Z,375.00
2022-10-07T06:26:13.165Z,368.00
2022-10-07T06:27:13.156Z,364.00
2022-10-07T06:28:13.181Z,361.00
2022-10-07T06:29:13.130Z,358.00
2022-10-07T06:30:13.131Z,353.00
2022-10-07T06:31:13.175Z,355.00
2022-10-07T06:32:13.105Z,361.00
2022-10-07T06:33:13.078Z,361.00
2022-10-07T06:34:13.086Z,365.00
2022-10-07T06:35:13.071Z,371.00
2022-10-07T06:36:13.030Z,365.00
2022-10-07T06:37:13.029Z,350.00
2022-10-07T06:38:13.039Z,342.00
2022-10-07T06:39:13.033Z,337.00
2022-10-07T06:40:12.984Z,337.00
2022-10-07T06:41:12.993Z,334.00
2022-10-07T06:42:12.973Z,335.00
2022-10-07T06:43:12.989Z,334.00
2022-10-07T06:44:12.930Z,333.00
2022-10-07T06:45:12.938Z,327.00
2022-10-07T06:46:12.991Z,326.00
2022-10-07T06:47:12.914Z,330.00
2022-10-07T06:48:12.874Z,330.00
2022-10-07T06:49:12.895Z,333.00
2022-10-07T06:50:12.887Z,338.00
2022-10-07T06:51:12.868Z,346.00
2022-10-07T06:52:12.844Z,354.00
2022-10-07T06:53:12.819Z,367.00
2022-10-07T06:54:12.837Z,363.00
2022-10-07T06:55:12.793Z,364.00
2022-10-07T06:56:12.789Z,365.00
2022-10-07T06:57:40.555Z,360.00
2022-10-07T06:58:12.766Z,346.00
2022-10-07T06:59:12.745Z,343.00
2022-10-07T07:00:12.744Z,338.00
2022-10-07T07:01:12.868Z,337.00
2022-10-07T07:02:12.781Z,333.00
2022-10-07T07:03:12.683Z,330.00
2022-10-07T07:04:12.685Z,325.00
2022-10-07T07:05:12.675Z,325.00
2022-10-07T07:06:12.658Z,321.00
2022-10-07T07:07:12.669Z,323.00
2022-10-07T07:08:12.634Z,325.00
2022-10-07T07:09:12.625Z,323.00
2022-10-07T07:10:12.604Z,319.00
2022-10-07T07:11:12.584Z,322.00
2022-10-07T07:12:12.597Z,321.00
2022-10-07T07:13:12.588Z,319.00
2022-10-07T07:14:12.533Z,322.00
2022-10-07T07:15:12.526Z,319.00
2022-10-07T07:16:12.647Z,320.00
2022-10-07T07:17:12.641Z,318.00
2022-10-07T07:18:12.521Z,313.00
2022-10-07T07:19:12.514Z,312.00
2022-10-07T07:20:12.462Z,316.00
2022-10-07T07:21:12.472Z,316.00
2022-10-07T07:22:12.432Z,315.00
2022-10-07T07:23:12.469Z,310.00
2022-10-07T07:24:12.419Z,313.00
2022-10-07T07:25:12.395Z,309.00
2022-10-07T07:26:12.385Z,310.00
2022-10-07T07:27:12.429Z,314.00
2022-10-07T07:28:12.442Z,314.00
2022-10-07T07:29:12.383Z,309.00
2022-10-07T07:30:12.364Z,315.00
2022-10-07T07:31:12.382Z,315.00
2022-10-07T07:32:12.363Z,314.00
2022-10-07T07:33:12.348Z,311.00
2022-10-07T07:34:12.349Z,315.00
2022-10-07T07:35:12.349Z,313.00
2022-10-07T07:36:12.312Z,311.00
2022-10-07T07:37:12.272Z,312.00
2022-10-07T07:38:12.292Z,314.00
2022-10-07T07:39:12.331Z,317.00
2022-10-07T07:40:12.225Z,319.00
2022-10-07T07:41:12.295Z,324.00
2022-10-07T07:42:12.249Z,326.00
2022-10-07T07:43:12.189Z,317.00
2022-10-07T07:44:12.203Z,307.00
2022-10-07T07:45:12.148Z,307.00
2022-10-07T07:46:12.260Z,307.00
2022-10-07T07:47:12.363Z,308.00
2022-10-07T07:48:12.096Z,309.00
2022-10-07T07:49:12.103Z,306.00
2022-10-07T07:50:12.101Z,305.00
2022-10-07T07:51:12.063Z,306.00
2022-10-07T07:52:12.055Z,302.00
2022-10-07T07:53:12.049Z,301.00
2022-10-07T07:54:12.033Z,309.00
2022-10-07T07:55:12.005Z,307.00
2022-10-07T07:56:12.015Z,302.00
2022-10-07T07:57:11.994Z,302.00
2022-10-07T07:58:12.146Z,303.00
2022-10-07T07:59:11.956Z,300.00
2022-10-07T08:00:11.938Z,298.00
2022-10-07T08:01:11.989Z,304.00
2022-10-07T08:02:12.023Z,304.00
2022-10-07T08:03:11.914Z,306.00
2022-10-07T08:04:11.906Z,304.00
2022-10-07T08:05:11.889Z,306.00
2022-10-07T08:06:11.873Z,304.00
2022-10-07T08:07:11.845Z,302.00
2022-10-07T08:08:11.867Z,302.00
2022-10-07T08:09:11.853Z,301.00
2022-10-07T08:10:11.818Z,297.00
2022-10-07T08:11:11.811Z,297.00
2022-10-07T08:12:11.814Z,295.00
2022-10-07T08:13:11.766Z,297.00
2022-10-07T08:14:11.765Z,299.00
2022-10-07T08:15:11.767Z,299.00
2022-10-07T08:16:11.780Z,301.00
2022-10-07T08:17:11.750Z,305.00
2022-10-07T08:18:11.712Z,302.00
2022-10-07T08:19:11.725Z,304.00
2022-10-07T08:20:11.690Z,303.00
2022-10-07T08:21:11.707Z,304.00
2022-10-07T08:22:11.677Z,301.00
2022-10-07T08:23:11.644Z,301.00
2022-10-07T08:24:11.651Z,305.00
2022-10-07T08:25:11.616Z,302.00
2022-10-07T08:26:11.644Z,299.00
2022-10-07T08:27:11.663Z,299.00
2022-10-07T08:28:11.644Z,307.00
2022-10-07T08:29:11.619Z,308.00
2022-10-07T08:30:11.691Z,332.00
2022-10-07T08:31:11.622Z,389.00
2022-10-07T08:32:11.505Z,409.00
2022-10-07T08:33:11.526Z,375.00
2022-10-07T08:34:11.518Z,366.00
2022-10-07T08:35:11.494Z,322.00
2022-10-07T08:36:11.457Z,314.00
2022-10-07T08:37:11.441Z,306.00
2022-10-07T08:38:14.382Z,261.00
2022-10-07T08:39:11.478Z,250.00
2022-10-07T08:40:11.428Z,267.00
2022-10-07T08:41:11.411Z,283.00
2022-10-07T08:42:11.386Z,311.00
2022-10-07T08:43:11.395Z,323.00
2022-10-07T08:44:16.376Z,323.00
2022-10-07T08:45:11.362Z,327.00
2022-10-07T08:46:11.401Z,330.00
2022-10-07T08:47:11.331Z,331.00
2022-10-07T08:48:11.318Z,331.00
2022-10-07T08:49:11.301Z,331.00
2022-10-07T08:50:15.166Z,332.00
2022-10-07T08:51:11.274Z,335.00
2022-10-07T08:52:11.240Z,338.00
2022-10-07T08:53:11.253Z,337.00
2022-10-07T08:54:11.217Z,337.00
2022-10-07T08:55:11.233Z,337.00
2022-10-07T08:56:11.212Z,337.00
2022-10-07T08:57:11.186Z,337.00
2022-10-07T08:58:11.182Z,337.00
2022-10-07T08:59:11.158Z,341.00
2022-10-07T09:00:11.261Z,341.00
2022-10-07T09:01:11.219Z,342.00
2022-10-07T09:02:11.145Z,343.00
2022-10-07T09:03:11.106Z,345.00
2022-10-07T09:04:11.103Z,346.00
2022-10-07T09:05:11.098Z,347.00
2022-10-07T09:06:11.079Z,348.00
2022-10-07T09:07:11.072Z,347.00
2022-10-07T09:08:11.087Z,345.00
2022-10-07T09:09:11.043Z,343.00
2022-10-07T09:10:11.010Z,343.00
2022-10-07T09:11:11.021Z,342.00
2022-10-07T09:12:11.021Z,339.00
2022-10-07T09:13:11.007Z,336.00
2022-10-07T09:14:10.975Z,337.00
2022-10-07T09:15:11.029Z,339.00
2022-10-07T09:16:10.979Z,341.00
2022-10-07T09:17:10.925Z,341.00
2022-10-07T09:18:10.963Z,341.00
2022-10-07T09:19:10.893Z,340.00
2022-10-07T09:20:10.925Z,342.00
2022-10-07T09:21:10.873Z,341.00
2022-10-07T09:22:10.855Z,342.00
2022-10-07T09:23:10.857Z,343.00
2022-10-07T09:24:10.891Z,341.00
2022-10-07T09:25:11.462Z,343.00
2022-10-07T09:26:10.805Z,344.00
2022-10-07T09:27:10.803Z,342.00
2022-10-07T09:28:10.805Z,341.00
2022-10-07T09:29:10.899Z,339.00
2022-10-07T09:30:10.770Z,339.00
2022-10-07T09:31:10.792Z,340.00
2022-10-07T09:32:10.726Z,344.00
2022-10-07T09:33:10.702Z,344.00
2022-10-07T09:34:10.723Z,345.00
2022-10-07T09:35:10.710Z,346.00
2022-10-07T09:36:10.669Z,347.00
2022-10-07T09:37:10.675Z,346.00
2022-10-07T09:38:10.661Z,344.00
2022-10-07T09:39:10.623Z,344.00
2022-10-07T09:40:10.655Z,345.00
2022-10-07T09:41:10.619Z,343.00
2022-10-07T09:42:10.627Z,343.00
2022-10-07T09:43:10.591Z,346.00
2022-10-07T09:44:10.585Z,345.00
2022-10-07T09:45:10.553Z,346.00
2022-10-07T09:46:10.599Z,345.00
2022-10-07T09:47:10.527Z,343.00
2022-10-07T09:48:10.530Z,342.00
2022-10-07T09:49:10.493Z,342.00
2022-10-07T09:50:10.512Z,343.00
2022-10-07T09:51:10.485Z,341.00
2022-10-07T09:52:10.473Z,337.00
2022-10-07T09:53:10.458Z,336.00
2022-10-07T09:54:10.456Z,338.00
2022-10-07T09:55:10.416Z,340.00
2022-10-07T09:56:10.429Z,338.00
2022-10-07T09:57:10.433Z,339.00
2022-10-07T09:58:10.417Z,340.00
2022-10-07T09:59:10.402Z,341.00
2022-10-07T10:00:10.371Z,339.00
2022-10-07T10:01:10.360Z,334.00
2022-10-07T10:02:10.434Z,336.00
2022-10-07T10:03:10.414Z,340.00
2022-10-07T10:04:10.305Z,341.00
2022-10-07T10:05:10.310Z,342.00
2022-10-07T10:06:10.287Z,341.00
2022-10-07T10:07:10.283Z,344.00
2022-10-07T10:08:10.294Z,344.00
2022-10-07T10:09:10.267Z,345.00
2022-10-07T10:10:10.270Z,342.00
2022-10-07T10:11:10.212Z,346.00
2022-10-07T10:12:10.228Z,344.00
2022-10-07T10:13:10.228Z,344.00
2022-10-07T10:14:10.203Z,343.00
2022-10-07T10:15:10.171Z,341.00
2022-10-07T10:16:10.233Z,339.00
2022-10-07T10:17:10.153Z,337.00
2022-10-07T10:18:10.152Z,339.00
2022-10-07T10:19:10.110Z,340.00
2022-10-07T10:20:10.103Z,341.00
2022-10-07T10:21:10.104Z,344.00
2022-10-07T10:22:10.103Z,345.00
2022-10-07T10:23:10.061Z,345.00
2022-10-07T10:24:10.082Z,342.00
2022-10-07T10:25:10.037Z,341.00
2022-10-07T10:26:10.021Z,341.00
2022-10-07T10:27:10.034Z,343.00
2022-10-07T10:28:10.030Z,344.00
2022-10-07T10:29:09.986Z,344.00
2022-10-07T10:30:09.971Z,342.00
2022-10-07T10:31:09.998Z,340.00
2022-10-07T10:32:09.954Z,341.00
2022-10-07T10:33:09.926Z,340.00
2022-10-07T10:34:09.921Z,340.00
2022-10-07T10:35:09.932Z,342.00
2022-10-07T10:36:09.914Z,339.00
2022-10-07T10:37:13.750Z,343.00
2022-10-07T10:38:09.873Z,338.00
2022-10-07T10:39:09.877Z,339.00
2022-10-07T10:40:09.844Z,342.00
2022-10-07T10:41:10.113Z,344.00
2022-10-07T10:42:09.823Z,344.00
2022-10-07T10:43:09.831Z,345.00
2022-10-07T10:44:09.813Z,345.00
2022-10-07T10:45:09.811Z,346.00
2022-10-07T10:46:09.836Z,346.00
2022-10-07T10:47:09.777Z,344.00
2022-10-07T10:48:09.749Z,345.00
2022-10-07T10:49:09.743Z,346.00
2022-10-07T10:50:09.715Z,345.00
2022-10-07T10:51:09.726Z,349.00
2022-10-07T10:52:13.266Z,345.00
2022-10-07T10:53:09.688Z,345.00
2022-10-07T10:54:09.685Z,345.00
2022-10-07T10:55:09.672Z,345.00
2022-10-07T10:56:09.670Z,345.00
2022-10-07T10:57:09.646Z,346.00
2022-10-07T10:58:09.613Z,345.00
2022-10-07T10:59:09.613Z,343.00
2022-10-07T11:00:09.591Z,343.00
2022-10-07T11:01:09.584Z,344.00
2022-10-07T11:02:09.642Z,342.00
2022-10-07T11:03:09.602Z,341.00
2022-10-07T11:04:09.540Z,340.00
2022-10-07T11:05:09.537Z,342.00
2022-10-07T11:06:09.530Z,342.00
2022-10-07T11:07:09.534Z,340.00
2022-10-07T11:08:09.502Z,336.00
2022-10-07T11:09:09.491Z,331.00
2022-10-07T11:10:09.461Z,331.00
2022-10-07T11:11:09.472Z,331.00
2022-10-07T11:12:09.443Z,329.00
2022-10-07T11:13:09.418Z,329.00
2022-10-07T11:14:09.429Z,330.00
2022-10-07T11:15:09.408Z,327.00
2022-10-07T11:16:09.435Z,330.00
2022-10-07T11:17:09.395Z,332.00
2022-10-07T11:18:09.377Z,336.00
2022-10-07T11:19:09.361Z,337.00
2022-10-07T11:20:09.356Z,335.00
2022-10-07T11:21:09.325Z,331.00
2022-10-07T11:22:09.319Z,330.00
2022-10-07T11:23:09.303Z,330.00
2022-10-07T11:24:09.284Z,328.00
2022-10-07T11:25:09.284Z,322.00
2022-10-07T11:26:09.276Z,320.00
2022-10-07T11:27:09.239Z,318.00
2022-10-07T11:28:09.306Z,318.00
2022-10-07T11:29:09.227Z,315.00
2022-10-07T11:30:09.209Z,313.00
2022-10-07T11:31:09.249Z,314.00
2022-10-07T11:32:09.279Z,313.00
2022-10-07T11:33:09.160Z,316.00
2022-10-07T11:34:09.187Z,315.00
2022-10-07T11:35:09.136Z,313.00
2022-10-07T11:36:09.245Z,314.00
2022-10-07T11:37:09.129Z,311.00
2022-10-07T11:38:09.106Z,311.00
2022-10-07T11:39:09.100Z,309.00
2022-10-07T11:40:09.100Z,308.00
2022-10-07T11:41:09.064Z,304.00
2022-10-07T11:42:09.054Z,306.00
2022-10-07T11:43:09.071Z,309.00
2022-10-07T11:44:09.051Z,311.00
2022-10-07T11:45:09.032Z,313.00
2022-10-07T11:46:11.497Z,318.00
2022-10-07T11:47:09.000Z,320.00
2022-10-07T11:48:08.999Z,323.00
2022-10-07T11:49:08.960Z,321.00
2022-10-07T11:50:08.978Z,319.00
2022-10-07T11:51:08.951Z,320.00
2022-10-07T11:52:08.943Z,321.00
2022-10-07T11:53:08.925Z,323.00
2022-10-07T11:54:08.918Z,321.00
2022-10-07T11:55:08.889Z,321.00
2022-10-07T11:56:08.884Z,321.00
2022-10-07T11:57:08.876Z,319.00
2022-10-07T11:58:08.872Z,318.00
2022-10-07T11:59:08.841Z,320.00
2022-10-07T12:00:08.863Z,321.00
2022-10-07T12:01:08.813Z,322.00
2022-10-07T12:02:08.886Z,322.00
2022-10-07T12:03:08.809Z,327.00
2022-10-07T12:04:08.775Z,325.00
2022-10-07T12:05:08.805Z,325.00
2022-10-07T12:06:08.768Z,324.00
2022-10-07T12:07:08.754Z,323.00
2022-10-07T12:08:08.733Z,320.00
2022-10-07T12:09:08.702Z,318.00
2022-10-07T12:10:08.731Z,316.00
2022-10-07T12:11:08.702Z,316.00
2022-10-07T12:12:08.669Z,316.00
2022-10-07T12:13:08.690Z,318.00
2022-10-07T12:14:08.654Z,322.00
2022-10-07T12:15:08.661Z,321.00
2022-10-07T12:16:08.700Z,323.00
2022-10-07T12:17:08.621Z,320.00
2022-10-07T12:18:08.652Z,322.00
2022-10-07T12:19:09.442Z,323.00
2022-10-07T12:20:08.574Z,321.00
2022-10-07T12:21:08.562Z,320.00
2022-10-07T12:22:08.559Z,320.00
2022-10-07T12:23:08.554Z,319.00
2022-10-07T12:24:08.559Z,317.00
2022-10-07T12:25:11.116Z,316.00
2022-10-07T12:26:08.521Z,316.00
2022-10-07T12:27:08.481Z,317.00
2022-10-07T12:28:08.503Z,318.00